PWSweather.com
Personal Weather Stations
Station Observations
METEOC500
Santo Antonio, FunchalPT 2020

Santo AntonioFunchalPT 2020

Lat: 32.678227, Lon: -16.945054

Elevation: 1669.94751

Station Type: WH Series

High Low Average
Temperature 68.7°F20.4°C 56.8°F13.8°C 61.4°F16.3°C
Dew Point 58.6°F14.8°C 45.3°F7.4°C 53.1°F11.7°C
Winds 7.8 mph 12.6 kmh Calm Calm 4.0 mph WSW6.4 kmh WSW
Wind Gusts 15.0 mph24.1 kmh 2.5 mph4.0 kmh 9.0 mph14.5 kmh
Humidity 84% 58% 74%
Pressure 30.41 in1029.8 mb 30.28 in1025.4 mb -
Precipitation 0.00 in0.0 mm - -
Hour Temp Dew Point Humidity Winds Wind Gusts Pressure Precip Precip Rate Daily Precip Total
12:08 AM 58.6°F14.8°C 48.2°F9.0°C 68% 2.9 mph NNW4.7 kmh NNW 7.6 mph12.2 kmh 30.41 in1029.8 mb 0.00 in0.0 mm 0.00 in0.0 mm 0.00 in0.0 mm
12:23 AM 58.6°F14.8°C 47.7°F8.7°C 67% 5.4 mph NNW8.7 kmh NNW 10.1 mph16.3 kmh 30.41 in1029.8 mb 0.00 in0.0 mm 0.00 in0.0 mm 0.00 in0.0 mm
12:38 AM 58.6°F14.8°C 48.6°F9.2°C 69% 7.8 mph NNW12.6 kmh NNW 10.1 mph16.3 kmh 30.41 in1029.8 mb 0.00 in0.0 mm 0.00 in0.0 mm 0.00 in0.0 mm
12:53 AM 58.8°F14.9°C 50.9°F10.5°C 75% 2.5 mph NW4.0 kmh NW 10.1 mph16.3 kmh 30.41 in1029.8 mb 0.00 in0.0 mm 0.00 in0.0 mm 0.00 in0.0 mm
01:09 AM 58.8°F14.9°C 52.3°F11.3°C 79% 6.3 mph NW10.1 kmh NW 10.1 mph16.3 kmh 30.40 in1029.5 mb 0.00 in0.0 mm 0.00 in0.0 mm 0.00 in0.0 mm
01:24 AM 58.5°F14.7°C 53.1°F11.7°C 82% 4.7 mph NNW7.6 kmh NNW 10.1 mph16.3 kmh 30.40 in1029.5 mb 0.00 in0.0 mm 0.00 in0.0 mm 0.00 in0.0 mm
01:39 AM 58.1°F14.5°C 52.7°F11.5°C 82% 4.9 mph NNW7.9 kmh NNW 10.1 mph16.3 kmh 30.40 in1029.5 mb 0.00 in0.0 mm 0.00 in0.0 mm 0.00 in0.0 mm
01:54 AM 57.9°F14.4°C 50.7°F10.4°C 77% 4.7 mph N7.6 kmh N 10.1 mph16.3 kmh 30.40 in1029.5 mb 0.00 in0.0 mm 0.00 in0.0 mm 0.00 in0.0 mm
02:09 AM 57.9°F14.4°C 50.4°F10.2°C 76% 6.5 mph N10.5 kmh N 12.5 mph20.1 kmh 30.40 in1029.5 mb 0.00 in0.0 mm 0.00 in0.0 mm 0.00 in0.0 mm
02:24 AM 57.7°F14.3°C 50.2°F10.1°C 76% 5.4 mph NNW8.7 kmh NNW 10.1 mph16.3 kmh 30.40 in1029.5 mb 0.00 in0.0 mm 0.00 in0.0 mm 0.00 in0.0 mm
02:39 AM 57.4°F14.1°C 48.7°F9.3°C 73% 5.6 mph NW9.0 kmh NW 7.6 mph12.2 kmh 30.39 in1029.1 mb 0.00 in0.0 mm 0.00 in0.0 mm 0.00 in0.0 mm
02:54 AM 57.2°F14.0°C 47.8°F8.8°C 71% 6.5 mph NNW10.5 kmh NNW 10.1 mph16.3 kmh 30.39 in1029.1 mb 0.00 in0.0 mm 0.00 in0.0 mm 0.00 in0.0 mm
03:09 AM 57.4°F14.1°C 48.4°F9.1°C 72% 5.4 mph NNW8.7 kmh NNW 7.6 mph12.2 kmh 30.38 in1028.8 mb 0.00 in0.0 mm 0.00 in0.0 mm 0.00 in0.0 mm
03:24 AM 57.2°F14.0°C 48.2°F9.0°C 72% 5.4 mph N8.7 kmh N 7.6 mph12.2 kmh 30.38 in1028.8 mb 0.00 in0.0 mm 0.00 in0.0 mm 0.00 in0.0 mm
03:39 AM 57.0°F13.9°C 45.9°F7.7°C 66% 4.5 mph NNW7.2 kmh NNW 10.1 mph16.3 kmh 30.38 in1028.8 mb 0.00 in0.0 mm 0.00 in0.0 mm 0.00 in0.0 mm
03:54 AM 57.4°F14.1°C 46.6°F8.1°C 67% 7.6 mph NNW12.2 kmh NNW 10.1 mph16.3 kmh 30.37 in1028.4 mb 0.00 in0.0 mm 0.00 in0.0 mm 0.00 in0.0 mm
04:09 AM 57.6°F14.2°C 45.5°F7.5°C 64% 4.7 mph NNW7.6 kmh NNW 12.5 mph20.1 kmh 30.38 in1028.8 mb 0.00 in0.0 mm 0.00 in0.0 mm 0.00 in0.0 mm
04:24 AM 57.6°F14.2°C 48.2°F9.0°C 71% 3.8 mph NW6.1 kmh NW 12.5 mph20.1 kmh 30.38 in1028.8 mb 0.00 in0.0 mm 0.00 in0.0 mm 0.00 in0.0 mm
04:39 AM 57.7°F14.3°C 50.5°F10.3°C 77% 5.6 mph NNW9.0 kmh NNW 12.5 mph20.1 kmh 30.37 in1028.4 mb 0.00 in0.0 mm 0.00 in0.0 mm 0.00 in0.0 mm
04:54 AM 57.9°F14.4°C 51.8°F11.0°C 80% 4.9 mph NNW7.9 kmh NNW 10.1 mph16.3 kmh 30.37 in1028.4 mb 0.00 in0.0 mm 0.00 in0.0 mm 0.00 in0.0 mm
05:09 AM 57.4°F14.1°C 50.9°F10.5°C 79% 5.4 mph NNW8.7 kmh NNW 12.5 mph20.1 kmh 30.37 in1028.4 mb 0.00 in0.0 mm 0.00 in0.0 mm 0.00 in0.0 mm
05:24 AM 57.2°F14.0°C 50.4°F10.2°C 78% 2.9 mph NNW4.7 kmh NNW 10.1 mph16.3 kmh 30.36 in1028.1 mb 0.00 in0.0 mm 0.00 in0.0 mm 0.00 in0.0 mm
05:39 AM 57.4°F14.1°C 47.7°F8.7°C 70% 3.4 mph NNW5.5 kmh NNW 10.1 mph16.3 kmh 30.37 in1028.4 mb 0.00 in0.0 mm 0.00 in0.0 mm 0.00 in0.0 mm
05:54 AM 57.2°F14.0°C 45.9°F7.7°C 66% 6.0 mph NNW9.7 kmh NNW 10.1 mph16.3 kmh 30.38 in1028.8 mb 0.00 in0.0 mm 0.00 in0.0 mm 0.00 in0.0 mm
06:09 AM 56.8°F13.8°C 47.8°F8.8°C 72% 5.6 mph N9.0 kmh N 10.1 mph16.3 kmh 30.38 in1028.8 mb 0.00 in0.0 mm 0.00 in0.0 mm 0.00 in0.0 mm
06:24 AM 57.2°F14.0°C 50.4°F10.2°C 78% 4.5 mph NNW7.2 kmh NNW 10.1 mph16.3 kmh 30.37 in1028.4 mb 0.00 in0.0 mm 0.00 in0.0 mm 0.00 in0.0 mm
06:39 AM 57.4°F14.1°C 46.9°F8.3°C 68% 6.5 mph NW10.5 kmh NW 10.1 mph16.3 kmh 30.38 in1028.8 mb 0.00 in0.0 mm 0.00 in0.0 mm 0.00 in0.0 mm
06:54 AM 57.0°F13.9°C 48.4°F9.1°C 73% 3.4 mph NNW5.5 kmh NNW 10.1 mph16.3 kmh 30.38 in1028.8 mb 0.00 in0.0 mm 0.00 in0.0 mm 0.00 in0.0 mm
07:09 AM 57.2°F14.0°C 49.3°F9.6°C 75% 4.7 mph N7.6 kmh N 7.6 mph12.2 kmh 30.38 in1028.8 mb 0.00 in0.0 mm 0.00 in0.0 mm 0.00 in0.0 mm
07:24 AM 57.6°F14.2°C 48.2°F9.0°C 71% 6.0 mph NNW9.7 kmh NNW 10.1 mph16.3 kmh 30.38 in1028.8 mb 0.00 in0.0 mm 0.00 in0.0 mm 0.00 in0.0 mm
07:39 AM 57.6°F14.2°C 47.1°F8.4°C 68% 3.1 mph NW5.0 kmh NW 10.1 mph16.3 kmh 30.37 in1028.4 mb 0.00 in0.0 mm 0.00 in0.0 mm 0.00 in0.0 mm
07:54 AM 58.1°F14.5°C 46.8°F8.2°C 66% 4.7 mph N7.6 kmh N 10.1 mph16.3 kmh 30.37 in1028.4 mb 0.00 in0.0 mm 0.00 in0.0 mm 0.00 in0.0 mm
08:09 AM 58.6°F14.8°C 45.3°F7.4°C 61% 4.7 mph NNW7.6 kmh NNW 7.6 mph12.2 kmh 30.38 in1028.8 mb 0.00 in0.0 mm 0.00 in0.0 mm 0.00 in0.0 mm
08:24 AM 59.4°F15.2°C 47.1°F8.4°C 64% 4.7 mph N7.6 kmh N 7.6 mph12.2 kmh 30.39 in1029.1 mb 0.00 in0.0 mm 0.00 in0.0 mm 0.00 in0.0 mm
08:39 AM 59.7°F15.4°C 48.7°F9.3°C 67% 2.5 mph N4.0 kmh N 7.6 mph12.2 kmh 30.39 in1029.1 mb 0.00 in0.0 mm 0.00 in0.0 mm 0.00 in0.0 mm
08:54 AM 60.3°F15.7°C 50.9°F10.5°C 71% 2.2 mph N3.5 kmh N 7.6 mph12.2 kmh 30.39 in1029.1 mb 0.00 in0.0 mm 0.00 in0.0 mm 0.00 in0.0 mm
09:09 AM 61.3°F16.3°C 51.8°F11.0°C 71% Calm Calm 2.5 mph4.0 kmh 30.38 in1028.8 mb 0.00 in0.0 mm 0.00 in0.0 mm 0.00 in0.0 mm
09:24 AM 64.0°F17.8°C 52.9°F11.6°C 67% 0.7 mph NNE1.1 kmh NNE 2.5 mph4.0 kmh 30.40 in1029.5 mb 0.00 in0.0 mm 0.00 in0.0 mm 0.00 in0.0 mm
09:40 AM 66.2°F19.0°C 55.4°F13.0°C 68% Calm Calm 2.5 mph4.0 kmh 30.39 in1029.1 mb 0.00 in0.0 mm 0.00 in0.0 mm 0.00 in0.0 mm
09:55 AM 66.7°F19.3°C 54.7°F12.6°C 65% 3.4 mph SE5.5 kmh SE 4.9 mph7.9 kmh 30.40 in1029.5 mb 0.00 in0.0 mm 0.00 in0.0 mm 0.00 in0.0 mm
10:10 AM 67.1°F19.5°C 51.8°F11.0°C 58% 3.4 mph SSE5.5 kmh SSE 7.6 mph12.2 kmh 30.39 in1029.1 mb 0.00 in0.0 mm 0.00 in0.0 mm 0.00 in0.0 mm
10:25 AM 67.3°F19.6°C 54.3°F12.4°C 63% 3.1 mph SE5.0 kmh SE 10.1 mph16.3 kmh 30.39 in1029.1 mb 0.00 in0.0 mm 0.00 in0.0 mm 0.00 in0.0 mm
10:40 AM 67.3°F19.6°C 55.0°F12.8°C 65% 3.1 mph SE5.0 kmh SE 10.1 mph16.3 kmh 30.39 in1029.1 mb 0.00 in0.0 mm 0.00 in0.0 mm 0.00 in0.0 mm
10:55 AM 67.1°F19.5°C 54.9°F12.7°C 65% 1.6 mph SSW2.6 kmh SSW 10.1 mph16.3 kmh 30.39 in1029.1 mb 0.00 in0.0 mm 0.00 in0.0 mm 0.00 in0.0 mm
11:10 AM 67.6°F19.8°C 55.9°F13.3°C 66% 1.8 mph SE2.9 kmh SE 7.6 mph12.2 kmh 30.38 in1028.8 mb 0.00 in0.0 mm 0.00 in0.0 mm 0.00 in0.0 mm
11:25 AM 68.5°F20.3°C 56.7°F13.7°C 66% 4.5 mph SE7.2 kmh SE 10.1 mph16.3 kmh 30.37 in1028.4 mb 0.00 in0.0 mm 0.00 in0.0 mm 0.00 in0.0 mm
11:40 AM 68.7°F20.4°C 57.4°F14.1°C 67% 1.6 mph SSE2.6 kmh SSE 10.1 mph16.3 kmh 30.37 in1028.4 mb 0.00 in0.0 mm 0.00 in0.0 mm 0.00 in0.0 mm
11:55 AM 68.4°F20.2°C 58.3°F14.6°C 70% 4.9 mph SE7.9 kmh SE 10.1 mph16.3 kmh 30.37 in1028.4 mb 0.00 in0.0 mm 0.00 in0.0 mm 0.00 in0.0 mm
12:10 PM 67.8°F19.9°C 56.8°F13.8°C 68% 6.9 mph SE11.1 kmh SE 15.0 mph24.1 kmh 30.36 in1028.1 mb 0.00 in0.0 mm 0.00 in0.0 mm 0.00 in0.0 mm
12:25 PM 67.8°F19.9°C 57.2°F14.0°C 69% Calm Calm 10.1 mph16.3 kmh 30.35 in1027.8 mb 0.00 in0.0 mm 0.00 in0.0 mm 0.00 in0.0 mm
12:40 PM 68.2°F20.1°C 55.9°F13.3°C 65% 7.6 mph SSW12.2 kmh SSW 12.5 mph20.1 kmh 30.34 in1027.4 mb 0.00 in0.0 mm 0.00 in0.0 mm 0.00 in0.0 mm
12:55 PM 68.4°F20.2°C 56.5°F13.6°C 66% 4.9 mph SE7.9 kmh SE 12.5 mph20.1 kmh 30.33 in1027.1 mb 0.00 in0.0 mm 0.00 in0.0 mm 0.00 in0.0 mm
01:10 PM 68.4°F20.2°C 57.4°F14.1°C 68% 4.9 mph SSW7.9 kmh SSW 12.5 mph20.1 kmh 30.33 in1027.1 mb 0.00 in0.0 mm 0.00 in0.0 mm 0.00 in0.0 mm
01:25 PM 68.2°F20.1°C 58.5°F14.7°C 71% 5.4 mph SSW8.7 kmh SSW 12.5 mph20.1 kmh 30.32 in1026.8 mb 0.00 in0.0 mm 0.00 in0.0 mm 0.00 in0.0 mm
01:40 PM 68.0°F20.0°C 58.6°F14.8°C 72% 6.3 mph S10.1 kmh S 12.5 mph20.1 kmh 30.31 in1026.4 mb 0.00 in0.0 mm 0.00 in0.0 mm 0.00 in0.0 mm
01:55 PM 67.3°F19.6°C 58.3°F14.6°C 73% 0.7 mph SW1.1 kmh SW 15.0 mph24.1 kmh 30.31 in1026.4 mb 0.00 in0.0 mm 0.00 in0.0 mm 0.00 in0.0 mm
02:10 PM 66.7°F19.3°C 57.7°F14.3°C 73% 1.8 mph SSE2.9 kmh SSE 12.5 mph20.1 kmh 30.31 in1026.4 mb 0.00 in0.0 mm 0.00 in0.0 mm 0.00 in0.0 mm
02:25 PM 66.0°F18.9°C 57.9°F14.4°C 75% 4.9 mph S7.9 kmh S 10.1 mph16.3 kmh 30.31 in1026.4 mb 0.00 in0.0 mm 0.00 in0.0 mm 0.00 in0.0 mm
02:40 PM 65.3°F18.5°C 57.2°F14.0°C 75% 3.4 mph ESE5.5 kmh ESE 10.1 mph16.3 kmh 30.30 in1026.1 mb 0.00 in0.0 mm 0.00 in0.0 mm 0.00 in0.0 mm
02:55 PM 65.1°F18.4°C 56.7°F13.7°C 74% 0.9 mph SSW1.4 kmh SSW 7.6 mph12.2 kmh 30.30 in1026.1 mb 0.00 in0.0 mm 0.00 in0.0 mm 0.00 in0.0 mm
03:10 PM 65.3°F18.5°C 57.2°F14.0°C 75% 2.2 mph SSE3.5 kmh SSE 7.6 mph12.2 kmh 30.30 in1026.1 mb 0.00 in0.0 mm 0.00 in0.0 mm 0.00 in0.0 mm
03:25 PM 65.1°F18.4°C 57.0°F13.9°C 75% 6.9 mph SE11.1 kmh SE 7.6 mph12.2 kmh 30.29 in1025.7 mb 0.00 in0.0 mm 0.00 in0.0 mm 0.00 in0.0 mm
03:40 PM 65.3°F18.5°C 57.6°F14.2°C 76% 0.2 mph S0.3 kmh S 12.5 mph20.1 kmh 30.29 in1025.7 mb 0.00 in0.0 mm 0.00 in0.0 mm 0.00 in0.0 mm
03:55 PM 65.3°F18.5°C 57.2°F14.0°C 75% 3.8 mph SSW6.1 kmh SSW 7.6 mph12.2 kmh 30.29 in1025.7 mb 0.00 in0.0 mm 0.00 in0.0 mm 0.00 in0.0 mm
04:10 PM 65.3°F18.5°C 57.2°F14.0°C 75% 0.7 mph ESE1.1 kmh ESE 10.1 mph16.3 kmh 30.28 in1025.4 mb 0.00 in0.0 mm 0.00 in0.0 mm 0.00 in0.0 mm
04:25 PM 65.1°F18.4°C 57.7°F14.3°C 77% 4.9 mph SSW7.9 kmh SSW 10.1 mph16.3 kmh 30.28 in1025.4 mb 0.00 in0.0 mm 0.00 in0.0 mm 0.00 in0.0 mm
04:40 PM 64.4°F18.0°C 57.7°F14.3°C 79% Calm Calm 7.6 mph12.2 kmh 30.28 in1025.4 mb 0.00 in0.0 mm 0.00 in0.0 mm 0.00 in0.0 mm
04:55 PM 63.7°F17.6°C 57.0°F13.9°C 79% 3.1 mph SSW5.0 kmh SSW 7.6 mph12.2 kmh 30.28 in1025.4 mb 0.00 in0.0 mm 0.00 in0.0 mm 0.00 in0.0 mm
05:10 PM 63.5°F17.5°C 56.5°F13.6°C 78% Calm Calm 4.9 mph7.9 kmh 30.28 in1025.4 mb 0.00 in0.0 mm 0.00 in0.0 mm 0.00 in0.0 mm
05:25 PM 63.3°F17.4°C 55.9°F13.3°C 77% 0.2 mph SSE0.3 kmh SSE 4.9 mph7.9 kmh 30.28 in1025.4 mb 0.00 in0.0 mm 0.00 in0.0 mm 0.00 in0.0 mm
05:40 PM 63.1°F17.3°C 56.8°F13.8°C 80% 1.3 mph SSW2.1 kmh SSW 7.6 mph12.2 kmh 30.28 in1025.4 mb 0.00 in0.0 mm 0.00 in0.0 mm 0.00 in0.0 mm
05:55 PM 62.8°F17.1°C 56.8°F13.8°C 81% 2.9 mph SSW4.7 kmh SSW 7.6 mph12.2 kmh 30.28 in1025.4 mb 0.00 in0.0 mm 0.00 in0.0 mm 0.00 in0.0 mm
06:11 PM 62.2°F16.8°C 56.7°F13.7°C 82% Calm Calm 4.9 mph7.9 kmh 30.28 in1025.4 mb 0.00 in0.0 mm 0.00 in0.0 mm 0.00 in0.0 mm
06:26 PM 61.9°F16.6°C 56.7°F13.7°C 83% Calm Calm 4.9 mph7.9 kmh 30.28 in1025.4 mb 0.00 in0.0 mm 0.00 in0.0 mm 0.00 in0.0 mm
06:41 PM 61.2°F16.2°C 56.3°F13.5°C 84% 2.2 mph N3.5 kmh N 4.9 mph7.9 kmh 30.28 in1025.4 mb 0.00 in0.0 mm 0.00 in0.0 mm 0.00 in0.0 mm
06:56 PM 60.4°F15.8°C 55.6°F13.1°C 84% 3.8 mph NNW6.1 kmh NNW 7.6 mph12.2 kmh 30.28 in1025.4 mb 0.00 in0.0 mm 0.00 in0.0 mm 0.00 in0.0 mm
07:11 PM 60.1°F15.6°C 55.2°F12.9°C 84% 2.2 mph NW3.5 kmh NW 10.1 mph16.3 kmh 30.29 in1025.7 mb 0.00 in0.0 mm 0.00 in0.0 mm 0.00 in0.0 mm
07:26 PM 59.7°F15.4°C 54.5°F12.5°C 83% 6.0 mph NNW9.7 kmh NNW 10.1 mph16.3 kmh 30.28 in1025.4 mb 0.00 in0.0 mm 0.00 in0.0 mm 0.00 in0.0 mm
07:41 PM 59.7°F15.4°C 54.1°F12.3°C 82% 3.1 mph NNW5.0 kmh NNW 12.5 mph20.1 kmh 30.29 in1025.7 mb 0.00 in0.0 mm 0.00 in0.0 mm 0.00 in0.0 mm
07:56 PM 59.9°F15.5°C 54.3°F12.4°C 82% 0.2 mph NW0.3 kmh NW 7.6 mph12.2 kmh 30.29 in1025.7 mb 0.00 in0.0 mm 0.00 in0.0 mm 0.00 in0.0 mm
08:11 PM 60.1°F15.6°C 54.5°F12.5°C 82% 3.4 mph NNW5.5 kmh NNW 10.1 mph16.3 kmh 30.29 in1025.7 mb 0.00 in0.0 mm 0.00 in0.0 mm 0.00 in0.0 mm
08:26 PM 59.9°F15.5°C 54.7°F12.6°C 83% 2.2 mph NW3.5 kmh NW 10.1 mph16.3 kmh 30.29 in1025.7 mb 0.00 in0.0 mm 0.00 in0.0 mm 0.00 in0.0 mm
08:41 PM 59.7°F15.4°C 54.5°F12.5°C 83% 4.5 mph NNW7.2 kmh NNW 10.1 mph16.3 kmh 30.29 in1025.7 mb 0.00 in0.0 mm 0.00 in0.0 mm 0.00 in0.0 mm
08:56 PM 59.7°F15.4°C 54.9°F12.7°C 84% 3.8 mph NNW6.1 kmh NNW 10.1 mph16.3 kmh 30.29 in1025.7 mb 0.00 in0.0 mm 0.00 in0.0 mm 0.00 in0.0 mm
09:11 PM 59.5°F15.3°C 54.7°F12.6°C 84% 5.4 mph NW8.7 kmh NW 10.1 mph16.3 kmh 30.29 in1025.7 mb 0.00 in0.0 mm 0.00 in0.0 mm 0.00 in0.0 mm
09:26 PM 59.5°F15.3°C 54.3°F12.4°C 83% 6.0 mph NNW9.7 kmh NNW 7.6 mph12.2 kmh 30.29 in1025.7 mb 0.00 in0.0 mm 0.00 in0.0 mm 0.00 in0.0 mm
09:41 PM 59.2°F15.1°C 54.0°F12.2°C 83% 4.7 mph NW7.6 kmh NW 7.6 mph12.2 kmh 30.30 in1026.1 mb 0.00 in0.0 mm 0.00 in0.0 mm 0.00 in0.0 mm
09:56 PM 58.8°F14.9°C 53.4°F11.9°C 82% 2.9 mph NW4.7 kmh NW 10.1 mph16.3 kmh 30.30 in1026.1 mb 0.00 in0.0 mm 0.00 in0.0 mm 0.00 in0.0 mm
10:11 PM 58.8°F14.9°C 54.0°F12.2°C 84% 2.9 mph NNW4.7 kmh NNW 10.1 mph16.3 kmh 30.30 in1026.1 mb 0.00 in0.0 mm 0.00 in0.0 mm 0.00 in0.0 mm
10:26 PM 58.8°F14.9°C 53.1°F11.7°C 81% 2.9 mph NNW4.7 kmh NNW 10.1 mph16.3 kmh 30.30 in1026.1 mb 0.00 in0.0 mm 0.00 in0.0 mm 0.00 in0.0 mm
10:41 PM 58.8°F14.9°C 53.4°F11.9°C 82% 4.7 mph NNW7.6 kmh NNW 10.1 mph16.3 kmh 30.31 in1026.4 mb 0.00 in0.0 mm 0.00 in0.0 mm 0.00 in0.0 mm
10:56 PM 58.8°F14.9°C 53.6°F12.0°C 83% 5.6 mph NNW9.0 kmh NNW 10.1 mph16.3 kmh 30.31 in1026.4 mb 0.00 in0.0 mm 0.00 in0.0 mm 0.00 in0.0 mm
11:11 PM 58.6°F14.8°C 53.2°F11.8°C 82% 4.5 mph NW7.2 kmh NW 10.1 mph16.3 kmh 30.31 in1026.4 mb 0.00 in0.0 mm 0.00 in0.0 mm 0.00 in0.0 mm
11:26 PM 58.6°F14.8°C 53.4°F11.9°C 83% 6.0 mph NNW9.7 kmh NNW 10.1 mph16.3 kmh 30.30 in1026.1 mb 0.00 in0.0 mm 0.00 in0.0 mm 0.00 in0.0 mm
11:41 PM 58.5°F14.7°C 53.6°F12.0°C 84% 3.8 mph NNW6.1 kmh NNW 10.1 mph16.3 kmh 30.29 in1025.7 mb 0.00 in0.0 mm 0.00 in0.0 mm 0.00 in0.0 mm
11:56 PM 58.5°F14.7°C 53.2°F11.8°C 83% 2.9 mph NNW4.7 kmh NNW 10.1 mph16.3 kmh 30.29 in1025.7 mb 0.00 in0.0 mm 0.00 in0.0 mm 0.00 in0.0 mm